createdAt,value
2022-10-24T00:01:44.821Z,11.37
2022-10-24T00:04:47.195Z,10.73
2022-10-24T00:07:50.797Z,9.93
2022-10-24T00:10:53.268Z,10.55
2022-10-24T00:13:57.221Z,11.30
2022-10-24T00:16:59.500Z,11.93
2022-10-24T00:20:02.050Z,11.13
2022-10-24T00:23:04.821Z,10.80
2022-10-24T00:26:07.662Z,10.75
2022-10-24T00:29:09.909Z,9.97
2022-10-24T00:32:12.211Z,11.03
2022-10-24T00:35:14.638Z,10.50
2022-10-24T00:38:16.882Z,11.88
2022-10-24T00:41:22.364Z,10.18
2022-10-24T00:44:27.435Z,10.97
2022-10-24T00:47:29.712Z,9.97
2022-10-24T00:50:32.061Z,11.45
2022-10-24T00:53:37.931Z,10.43
2022-10-24T00:57:08.449Z,10.82
2022-10-24T01:00:15.441Z,11.03
2022-10-24T01:03:18.043Z,10.40
2022-10-24T01:06:32.067Z,10.50
2022-10-24T01:09:56.123Z,10.63
2022-10-24T01:13:20.311Z,9.98
2022-10-24T01:16:34.582Z,10.27
2022-10-24T01:20:07.588Z,10.23
2022-10-24T01:23:40.959Z,10.60
2022-10-24T01:27:08.305Z,10.30
2022-10-24T01:30:15.073Z,10.80
2022-10-24T01:33:31.846Z,10.23
2022-10-24T01:36:40.154Z,10.20
2022-10-24T01:39:49.762Z,11.35
2022-10-24T01:42:54.083Z,9.90
2022-10-24T01:46:01.502Z,10.80
2022-10-24T01:49:12.579Z,11.27
2022-10-24T01:52:16.118Z,10.30
2022-10-24T01:55:18.572Z,10.90
2022-10-24T01:58:21.204Z,10.05
2022-10-24T02:01:24.723Z,9.88
2022-10-24T02:04:29.989Z,10.00
2022-10-24T02:07:34.112Z,10.17
2022-10-24T02:10:42.412Z,10.15
2022-10-24T02:13:56.674Z,10.07
2022-10-24T02:17:00.321Z,9.98
2022-10-24T02:20:03.836Z,10.60
2022-10-24T02:23:15.185Z,10.30
2022-10-24T02:26:27.486Z,10.38
2022-10-24T02:29:30.849Z,9.63
2022-10-24T02:32:46.003Z,10.45
2022-10-24T02:35:48.877Z,10.30
2022-10-24T02:38:52.486Z,10.83
2022-10-24T02:41:55.919Z,10.38
2022-10-24T02:44:58.731Z,10.55
2022-10-24T02:48:03.145Z,9.93
2022-10-24T02:51:06.189Z,10.43
2022-10-24T02:54:08.726Z,9.10
2022-10-24T02:57:11.334Z,10.25
2022-10-24T03:00:14.036Z,10.60
2022-10-24T03:03:16.341Z,9.50
2022-10-24T03:06:19.439Z,10.50
2022-10-24T03:09:21.741Z,9.83
2022-10-24T03:12:24.323Z,10.55
2022-10-24T03:15:26.650Z,10.82
2022-10-24T03:18:28.937Z,11.73
2022-10-24T03:21:31.222Z,12.33
2022-10-24T03:24:43.904Z,13.07
2022-10-24T03:27:55.850Z,13.93
2022-10-24T03:30:58.203Z,13.63
2022-10-24T03:34:00.523Z,13.35
2022-10-24T03:37:02.860Z,14.17
2022-10-24T03:40:05.604Z,14.33
2022-10-24T03:43:07.818Z,15.80
2022-10-24T03:46:10.156Z,14.82
2022-10-24T03:49:12.387Z,15.82
2022-10-24T03:52:14.671Z,15.70
2022-10-24T03:55:17.026Z,15.97
2022-10-24T03:58:19.293Z,16.58
2022-10-24T04:01:22.167Z,15.32
2022-10-24T04:04:24.473Z,15.05
2022-10-24T04:07:26.817Z,14.47
2022-10-24T04:10:29.339Z,15.07
2022-10-24T04:13:31.937Z,14.95
2022-10-24T04:16:34.951Z,14.77
2022-10-24T04:19:37.258Z,14.45
2022-10-24T04:22:39.558Z,14.43
2022-10-24T04:25:42.009Z,14.60
2022-10-24T04:28:46.907Z,14.68
2022-10-24T04:31:49.158Z,14.95
2022-10-24T04:34:51.473Z,15.27
2022-10-24T04:37:53.969Z,16.10
2022-10-24T04:40:57.555Z,15.40
2022-10-24T04:43:59.964Z,16.02
2022-10-24T04:47:02.310Z,14.73
2022-10-24T04:50:05.245Z,15.75
2022-10-24T04:53:07.486Z,16.47
2022-10-24T04:56:09.839Z,16.47
2022-10-24T04:59:12.153Z,16.80
2022-10-24T05:02:14.562Z,16.35
2022-10-24T05:05:17.282Z,18.08
2022-10-24T05:08:19.611Z,15.83
2022-10-24T05:11:21.933Z,17.43
2022-10-24T05:14:24.895Z,15.68
2022-10-24T05:17:27.232Z,15.77
2022-10-24T05:20:29.522Z,16.17
2022-10-24T05:23:31.973Z,16.70
2022-10-24T05:26:34.512Z,15.93
2022-10-24T05:29:37.197Z,17.73
2022-10-24T05:32:39.938Z,18.30
2022-10-24T05:35:42.377Z,17.00
2022-10-24T05:38:44.660Z,16.87
2022-10-24T05:41:47.435Z,15.93
2022-10-24T05:44:51.146Z,15.93
2022-10-24T05:47:53.606Z,14.95
2022-10-24T05:50:57.873Z,16.67
2022-10-24T05:54:00.271Z,16.93
2022-10-24T05:57:02.610Z,15.07
2022-10-24T06:00:07.189Z,15.02
2022-10-24T06:03:15.973Z,14.52
2022-10-24T06:06:18.298Z,14.75
2022-10-24T06:09:20.567Z,14.73
2022-10-24T06:12:23.208Z,14.40
2022-10-24T06:15:25.667Z,14.52
2022-10-24T06:18:28.322Z,13.35
2022-10-24T06:21:30.594Z,14.18
2022-10-24T06:24:38.337Z,14.43
2022-10-24T06:27:41.637Z,15.40
2022-10-24T06:30:44.311Z,14.93
2022-10-24T06:33:46.617Z,15.35
2022-10-24T06:36:49.005Z,14.50
2022-10-24T06:39:51.331Z,15.10
2022-10-24T06:42:53.646Z,14.93
2022-10-24T06:45:56.197Z,14.00
2022-10-24T06:48:59.008Z,14.93
2022-10-24T06:52:01.452Z,14.98
2022-10-24T06:55:04.316Z,14.90
2022-10-24T06:58:07.189Z,13.80
2022-10-24T07:01:15.355Z,13.77
2022-10-24T07:04:17.733Z,16.48
2022-10-24T07:07:21.498Z,15.80
2022-10-24T07:10:25.755Z,16.27
2022-10-24T07:13:30.572Z,15.53
2022-10-24T07:16:37.302Z,15.98
2022-10-24T07:19:39.633Z,16.45
2022-10-24T07:22:42.967Z,17.85
2022-10-24T07:25:45.711Z,17.40
2022-10-24T07:28:53.437Z,16.63
2022-10-24T07:31:56.093Z,16.15
2022-10-24T07:34:58.359Z,16.17
2022-10-24T07:38:00.770Z,16.65
2022-10-24T07:41:06.464Z,16.57
2022-10-24T07:44:10.297Z,13.47
2022-10-24T07:47:12.569Z,14.52
2022-10-24T07:50:17.307Z,16.13
2022-10-24T07:53:19.689Z,15.88
2022-10-24T07:56:22.284Z,14.17
2022-10-24T07:59:41.269Z,14.93
2022-10-24T08:02:44.826Z,15.05
2022-10-24T08:05:47.585Z,14.35
2022-10-24T08:08:49.972Z,14.63
2022-10-24T08:11:52.444Z,12.40
2022-10-24T08:14:55.920Z,13.13
2022-10-24T08:17:58.212Z,13.05
2022-10-24T08:21:01.912Z,11.65
2022-10-24T08:24:04.823Z,11.73
2022-10-24T08:27:07.611Z,12.27
2022-10-24T08:30:10.261Z,12.53
2022-10-24T08:33:17.346Z,12.00
2022-10-24T08:36:24.071Z,11.13
2022-10-24T08:39:27.151Z,12.10
2022-10-24T08:42:29.478Z,12.63
2022-10-24T08:46:07.127Z,13.00
2022-10-24T08:49:18.134Z,12.57
2022-10-24T08:52:28.254Z,11.77
2022-10-24T08:55:55.223Z,11.90
2022-10-24T08:58:57.987Z,11.80
2022-10-24T09:02:22.200Z,11.90
2022-10-24T09:05:37.798Z,12.38
2022-10-24T09:09:12.138Z,11.65
2022-10-24T09:12:16.677Z,11.15
2022-10-24T09:15:30.904Z,11.43
2022-10-24T09:18:41.315Z,12.13
2022-10-24T09:21:43.894Z,12.50
2022-10-24T09:24:51.259Z,12.77
2022-10-24T09:27:53.526Z,12.30
2022-10-24T09:30:55.831Z,12.10
2022-10-24T09:34:00.589Z,11.70
2022-10-24T09:37:02.964Z,12.48
2022-10-24T09:40:22.451Z,10.93
2022-10-24T09:43:47.134Z,13.00
2022-10-24T09:47:29.005Z,12.80
2022-10-24T09:50:34.347Z,11.13
2022-10-24T09:53:39.639Z,11.20
2022-10-24T09:56:42.441Z,12.60
2022-10-24T10:00:00.327Z,11.93
2022-10-24T10:03:02.614Z,11.90
2022-10-24T10:06:14.510Z,13.43
2022-10-24T10:09:27.986Z,12.80
2022-10-24T10:12:39.457Z,13.75
2022-10-24T10:16:06.917Z,14.18
2022-10-24T10:19:21.177Z,14.33
2022-10-24T10:22:32.016Z,13.53
2022-10-24T10:25:34.313Z,13.68
2022-10-24T10:28:43.265Z,12.68
2022-10-24T10:32:11.873Z,14.93
2022-10-24T10:35:37.686Z,13.73
2022-10-24T10:38:46.037Z,13.57
2022-10-24T10:41:49.165Z,14.50
2022-10-24T10:44:58.677Z,14.27
2022-10-24T10:48:19.688Z,14.85
2022-10-24T10:51:40.847Z,15.00
2022-10-24T10:55:03.350Z,15.03
2022-10-24T10:58:14.486Z,14.25
2022-10-24T11:01:29.624Z,14.27
2022-10-24T11:04:41.066Z,13.57
2022-10-24T11:07:55.375Z,15.57
2022-10-24T11:11:07.967Z,12.90
2022-10-24T11:14:28.769Z,13.98
2022-10-24T11:18:09.332Z,13.15
2022-10-24T11:21:13.785Z,13.80
2022-10-24T11:24:19.773Z,14.60
2022-10-24T11:27:44.359Z,13.03
2022-10-24T11:30:52.177Z,14.90
2022-10-24T11:34:01.623Z,14.73
2022-10-24T11:37:12.164Z,15.35
2022-10-24T11:40:22.389Z,16.57
2022-10-24T11:43:36.768Z,15.57
2022-10-24T11:46:44.844Z,14.63
2022-10-24T11:49:54.196Z,14.80
2022-10-24T11:53:28.879Z,16.20
2022-10-24T11:56:54.549Z,16.00
2022-10-24T11:59:58.003Z,15.43
2022-10-24T12:03:35.909Z,14.73
2022-10-24T12:06:54.075Z,14.90
2022-10-24T12:10:18.257Z,15.00
2022-10-24T12:13:26.608Z,15.97
2022-10-24T12:16:38.649Z,16.00
2022-10-24T12:19:42.357Z,16.52
2022-10-24T12:22:46.404Z,15.77
2022-10-24T12:26:03.048Z,15.90
2022-10-24T12:29:07.534Z,16.43
2022-10-24T12:32:37.646Z,15.90
2022-10-24T12:35:41.446Z,14.20
2022-10-24T12:38:43.873Z,16.15
2022-10-24T12:41:46.341Z,15.40
2022-10-24T12:45:09.464Z,14.97
2022-10-24T12:48:25.755Z,15.63
2022-10-24T12:51:40.839Z,15.18
2022-10-24T12:54:45.013Z,16.05
2022-10-24T12:57:47.709Z,15.23
2022-10-24T13:00:58.076Z,15.40
2022-10-24T13:04:08.598Z,16.27
2022-10-24T13:07:29.583Z,16.00
2022-10-24T13:10:44.057Z,16.38
2022-10-24T13:14:13.861Z,17.20
2022-10-24T13:17:25.051Z,16.27
2022-10-24T13:20:41.148Z,14.97
2022-10-24T13:23:45.631Z,14.73
2022-10-24T13:27:14.614Z,17.42
2022-10-24T13:30:25.789Z,14.77
2022-10-24T13:33:31.159Z,15.77
2022-10-24T13:36:33.566Z,16.20
2022-10-24T13:39:42.441Z,15.65
2022-10-24T13:42:52.431Z,17.48
2022-10-24T13:46:01.668Z,17.33
2022-10-24T13:49:04.941Z,17.10
2022-10-24T13:52:18.704Z,15.67
2022-10-24T13:55:30.893Z,16.08
2022-10-24T13:58:44.337Z,17.88
2022-10-24T14:01:47.589Z,16.02
2022-10-24T14:04:51.906Z,17.43
2022-10-24T14:07:58.685Z,15.47
2022-10-24T14:11:04.006Z,16.92
2022-10-24T14:14:26.597Z,16.15
2022-10-24T14:17:31.400Z,16.02
2022-10-24T14:20:35.911Z,16.13
2022-10-24T14:23:40.809Z,16.93
2022-10-24T14:26:45.691Z,16.25
2022-10-24T14:29:58.588Z,17.50
2022-10-24T14:33:19.071Z,17.77
2022-10-24T14:36:30.040Z,17.47
2022-10-24T14:39:33.198Z,17.67
2022-10-24T14:42:35.493Z,16.88
2022-10-24T14:45:37.819Z,17.65
2022-10-24T14:48:42.143Z,18.45
2022-10-24T14:51:44.738Z,17.17
2022-10-24T14:55:06.644Z,16.07
2022-10-24T14:58:21.647Z,17.63
2022-10-24T15:01:24.758Z,16.75
2022-10-24T15:04:45.910Z,16.60
2022-10-24T15:08:16.818Z,16.43
2022-10-24T15:11:25.185Z,15.77
2022-10-24T15:14:37.106Z,15.35
2022-10-24T15:17:39.436Z,16.63
2022-10-24T15:20:41.809Z,16.88
2022-10-24T15:23:56.178Z,17.60
2022-10-24T15:27:12.713Z,20.07
2022-10-24T15:30:20.812Z,16.98
2022-10-24T15:33:23.087Z,17.58
2022-10-24T15:36:30.694Z,18.10
2022-10-24T15:39:34.049Z,18.23
2022-10-24T15:42:36.327Z,17.87
2022-10-24T15:45:38.949Z,16.35
2022-10-24T15:48:41.220Z,17.90
2022-10-24T15:51:49.028Z,17.98
2022-10-24T15:54:52.593Z,18.63
2022-10-24T15:57:57.131Z,17.80
2022-10-24T16:00:59.630Z,16.50
2022-10-24T16:04:02.485Z,17.05
2022-10-24T16:07:05.065Z,18.02
2022-10-24T16:10:07.636Z,18.27
2022-10-24T16:13:12.900Z,16.90
2022-10-24T16:16:15.262Z,18.38
2022-10-24T16:19:17.654Z,18.25
2022-10-24T16:22:19.954Z,18.45
2022-10-24T16:25:25.267Z,19.00
2022-10-24T16:28:28.958Z,18.53
2022-10-24T16:31:31.785Z,18.48
2022-10-24T16:34:34.042Z,19.05
2022-10-24T16:37:36.394Z,20.05
2022-10-24T16:40:43.653Z,20.13
2022-10-24T16:43:49.127Z,17.77
2022-10-24T16:46:54.161Z,18.63
2022-10-24T16:49:57.001Z,21.20
2022-10-24T16:53:01.877Z,25.73
2022-10-24T16:56:04.306Z,23.03
2022-10-24T16:59:07.100Z,32.57
2022-10-24T17:02:12.495Z,40.35
2022-10-24T17:05:15.612Z,37.03
2022-10-24T17:08:17.844Z,33.67
2022-10-24T17:11:43.782Z,31.60
2022-10-24T17:14:42.462Z,28.37
2022-10-24T17:17:45.324Z,23.40
2022-10-24T17:20:48.339Z,19.27
2022-10-24T17:23:54.181Z,20.40
2022-10-24T17:26:56.780Z,19.23
2022-10-24T17:29:59.204Z,20.87
2022-10-24T17:33:01.624Z,19.90
2022-10-24T17:36:04.657Z,19.90
2022-10-24T17:39:13.395Z,19.23
2022-10-24T17:42:15.927Z,20.10
2022-10-24T17:45:23.018Z,18.67
2022-10-24T17:48:25.481Z,19.55
2022-10-24T17:51:28.068Z,18.63
2022-10-24T17:54:30.393Z,18.63
2022-10-24T17:57:32.685Z,19.63
2022-10-24T18:00:35.058Z,19.10
2022-10-24T18:03:37.422Z,21.17
2022-10-24T18:06:42.170Z,21.92
2022-10-24T18:09:45.501Z,23.40
2022-10-24T18:12:47.875Z,23.07
2022-10-24T18:15:50.223Z,21.87
2022-10-24T18:18:52.449Z,22.63
2022-10-24T18:21:54.802Z,22.42
2022-10-24T18:24:57.119Z,22.58
2022-10-24T18:27:59.365Z,22.47
2022-10-24T18:31:08.842Z,21.97
2022-10-24T18:34:11.189Z,21.88
2022-10-24T18:37:13.846Z,23.58
2022-10-24T18:40:16.749Z,22.20
2022-10-24T18:43:19.047Z,24.60
2022-10-24T18:46:21.989Z,26.60
2022-10-24T18:49:24.941Z,26.77
2022-10-24T18:52:37.949Z,28.63
2022-10-24T18:55:40.523Z,27.52
2022-10-24T18:58:42.922Z,32.97
2022-10-24T19:02:10.003Z,33.17
2022-10-24T19:05:24.790Z,51.90
2022-10-24T19:08:27.803Z,52.58
2022-10-24T19:11:30.156Z,60.35
2022-10-24T19:14:32.522Z,49.63
2022-10-24T19:17:34.814Z,48.50
2022-10-24T19:20:37.087Z,40.75
2022-10-24T19:23:39.286Z,32.17
2022-10-24T19:26:41.746Z,32.38
2022-10-24T19:29:44.053Z,34.57
2022-10-24T19:32:46.609Z,35.27
2022-10-24T19:35:49.051Z,32.50
2022-10-24T19:38:55.644Z,33.90
2022-10-24T19:41:57.952Z,32.63
2022-10-24T19:45:00.234Z,30.73
2022-10-24T19:48:02.475Z,32.00
2022-10-24T19:51:06.472Z,33.33
2022-10-24T19:54:08.775Z,36.20
2022-10-24T19:57:11.855Z,32.70
2022-10-24T20:00:14.365Z,33.57
2022-10-24T20:03:16.593Z,31.53
2022-10-24T20:06:19.245Z,33.97
2022-10-24T20:09:21.558Z,32.28
2022-10-24T20:12:23.892Z,29.15
2022-10-24T20:15:26.286Z,28.77
2022-10-24T20:18:29.539Z,27.20
2022-10-24T20:21:34.138Z,25.67
2022-10-24T20:24:36.337Z,27.73
2022-10-24T20:27:38.853Z,25.77
2022-10-24T20:30:42.717Z,27.57
2022-10-24T20:33:45.044Z,26.20
2022-10-24T20:36:48.163Z,25.58
2022-10-24T20:39:50.475Z,24.23
2022-10-24T20:42:52.702Z,23.83
2022-10-24T20:45:55.081Z,24.97
2022-10-24T20:48:57.334Z,25.23
2022-10-24T20:51:59.653Z,26.23
2022-10-24T20:55:07.582Z,23.90
2022-10-24T20:58:17.146Z,25.15
2022-10-24T21:01:24.963Z,26.50
2022-10-24T21:04:27.241Z,25.10
2022-10-24T21:07:29.521Z,26.55
2022-10-24T21:10:31.728Z,26.23
2022-10-24T21:13:34.044Z,24.90
2022-10-24T21:16:36.370Z,25.93
2022-10-24T21:19:38.635Z,23.60
2022-10-24T21:22:40.924Z,25.10
2022-10-24T21:25:43.633Z,23.73
2022-10-24T21:28:45.962Z,24.27
2022-10-24T21:31:51.771Z,23.97
2022-10-24T21:34:54.136Z,23.13
2022-10-24T21:37:56.501Z,25.20
2022-10-24T21:41:09.641Z,25.85
2022-10-24T21:44:12.492Z,25.35
2022-10-24T21:47:14.722Z,25.03
2022-10-24T21:50:17.038Z,25.73
2022-10-24T21:53:19.332Z,23.67
2022-10-24T21:56:25.131Z,23.95
2022-10-24T21:59:27.412Z,24.23
2022-10-24T22:02:29.814Z,24.67
2022-10-24T22:05:32.594Z,24.37
2022-10-24T22:08:34.966Z,23.40
2022-10-24T22:11:37.339Z,25.88
2022-10-24T22:14:39.595Z,24.35
2022-10-24T22:17:41.845Z,22.90
2022-10-24T22:20:44.380Z,24.27
2022-10-24T22:23:46.652Z,25.05
2022-10-24T22:26:49.889Z,23.98
2022-10-24T22:29:52.186Z,24.45
2022-10-24T22:32:54.658Z,25.10
2022-10-24T22:35:59.179Z,23.73
2022-10-24T22:39:01.746Z,24.05
2022-10-24T22:42:06.695Z,24.52
2022-10-24T22:45:12.558Z,24.38
2022-10-24T22:48:22.054Z,24.43
2022-10-24T22:51:24.608Z,25.00
2022-10-24T22:54:33.910Z,25.85
2022-10-24T22:57:36.454Z,24.92
2022-10-24T23:00:38.961Z,25.27
2022-10-24T23:04:00.823Z,24.37
2022-10-24T23:07:32.458Z,24.53
2022-10-24T23:10:36.548Z,25.98
2022-10-24T23:13:40.116Z,24.60
2022-10-24T23:16:53.553Z,23.85
2022-10-24T23:19:56.960Z,25.87
2022-10-24T23:23:16.305Z,24.43
2022-10-24T23:27:14.987Z,25.40
2022-10-24T23:30:22.309Z,23.88
2022-10-24T23:33:29.598Z,24.27
2022-10-24T23:36:32.324Z,24.40
2022-10-24T23:39:35.760Z,25.63
2022-10-24T23:42:38.508Z,24.45
2022-10-24T23:45:49.442Z,25.27
2022-10-24T23:49:01.418Z,25.52
2022-10-24T23:52:36.068Z,26.17
2022-10-24T23:55:38.594Z,25.00
2022-10-24T23:58:40.920Z,25.17
